Time;durP1;ratioP1;P1;durP2;ratioP2;P2;SDS_P1;SDS_P2;PMS_P1;PMS_P2;Temp;Humidity;BMP_temperature;BMP_pressure;BME280_temperature;BME280_humidity;BME280_pressure;Samples;Min_cycle;Max_cycle;Signal;HPM_P1;HPM_P2
2022/04/29 00:01:25;;;;;;;25.40;15.95;;;;;;;;;;5073611;28;20040;-40
2022/04/29 00:03:53;;;;;;;24.58;16.63;;;;;;;;;;5073824;28;20476;-40
2022/04/29 00:06:19;;;;;;;21.67;15.15;;;;;;;;;;5073420;28;20492;-40
2022/04/29 00:08:45;;;;;;;20.33;14.48;;;;;;;;;;5073345;28;20020;-40
2022/04/29 00:11:11;;;;;;;22.88;15.00;;;;;;;;;;5072056;28;20028;-41
2022/04/29 00:13:38;;;;;;;23.33;15.77;;;;;;;;;;5073865;28;20023;-42
2022/04/29 00:16:05;;;;;;;23.25;15.02;;;;;;;;;;5073579;28;20099;-40
2022/04/29 00:18:31;;;;;;;25.05;15.23;;;;;;;;;;5073421;28;20484;-40
2022/04/29 00:20:57;;;;;;;23.42;14.27;;;;;;;;;;5073189;28;20089;-41
2022/04/29 00:23:23;;;;;;;19.98;13.88;;;;;;;;;;5073208;28;20021;-40
2022/04/29 00:25:49;;;;;;;24.27;15.32;;;;;;;;;;5073053;28;20456;-40
2022/04/29 00:28:15;;;;;;;27.23;16.20;;;;;;;;;;5073304;28;20040;-40
2022/04/29 00:30:42;;;;;;;25.00;15.77;;;;;;;;;;5073228;28;20024;-41
2022/04/29 00:33:08;;;;;;;22.65;15.13;;;;;;;;;;5073307;28;20032;-42
2022/04/29 00:35:34;;;;;;;23.98;15.38;;;;;;;;;;5073183;28;20021;-42
2022/04/29 00:38:00;;;;;;;24.52;16.42;;;;;;;;;;5071867;28;20029;-41
2022/04/29 00:40:28;;;;;;;25.77;15.60;;;;;;;;;;5073214;28;20460;-42
2022/04/29 00:42:54;;;;;;;24.08;16.13;;;;;;;;;;5073112;28;20365;-42
2022/04/29 00:45:21;;;;;;;27.13;16.17;;;;;;;;;;5072998;28;20036;-41
2022/04/29 00:47:48;;;;;;;28.48;17.42;;;;;;;;;;5073186;28;20540;-41
2022/04/29 00:50:17;;;;;;;27.15;16.77;;;;;;;;;;5072864;28;20049;-41
2022/04/29 00:52:47;;;;;;;22.23;16.42;;;;;;;;;;5072794;28;20036;-42
2022/04/29 00:55:14;;;;;;;25.80;17.40;;;;;;;;;;5076848;28;20038;-40
2022/04/29 00:57:40;;;;;;;24.65;15.85;;;;;;;;;;5076799;28;20099;-40
2022/04/29 01:00:08;;;;;;;25.23;16.85;;;;;;;;;;5059660;28;20458;-42
2022/04/29 01:02:38;;;;;;;26.73;16.98;;;;;;;;;;5056625;28;20029;-42
2022/04/29 01:05:06;;;;;;;30.90;21.10;;;;;;;;;;5056677;28;20029;-39
2022/04/29 01:07:33;;;;;;;38.50;24.98;;;;;;;;;;5056567;28;20087;-39
2022/04/29 01:09:59;;;;;;;37.40;27.02;;;;;;;;;;5056634;28;20092;-42
2022/04/29 01:12:26;;;;;;;28.85;21.08;;;;;;;;;;5056680;28;20025;-39
2022/04/29 01:14:53;;;;;;;25.42;17.85;;;;;;;;;;5056432;28;20060;-42
2022/04/29 01:17:19;;;;;;;26.10;17.88;;;;;;;;;;5056475;28;20029;-40
2022/04/29 01:19:46;;;;;;;28.42;18.05;;;;;;;;;;5056483;28;20469;-42
2022/04/29 01:22:12;;;;;;;23.55;16.05;;;;;;;;;;5056161;28;20060;-42
2022/04/29 01:24:41;;;;;;;25.75;17.10;;;;;;;;;;5056416;28;20028;-42
2022/04/29 01:27:10;;;;;;;24.80;16.83;;;;;;;;;;5056079;28;20086;-41
2022/04/29 01:29:51;;;;;;;25.15;17.15;;;;;;;;;;5056366;28;20025;-41
2022/04/29 01:32:17;;;;;;;24.10;16.95;;;;;;;;;;5056240;28;20097;-42
2022/04/29 01:34:43;;;;;;;23.33;16.17;;;;;;;;;;5056275;28;20029;-41
2022/04/29 01:37:12;;;;;;;23.67;16.23;;;;;;;;;;5056118;28;20099;-41
2022/04/29 01:39:38;;;;;;;23.98;16.70;;;;;;;;;;5056177;28;20053;-42
2022/04/29 01:42:04;;;;;;;28.88;17.95;;;;;;;;;;5056090;28;20525;-41
2022/04/29 01:44:30;;;;;;;33.80;23.58;;;;;;;;;;5056251;28;20025;-42
2022/04/29 01:46:56;;;;;;;32.38;23.58;;;;;;;;;;5055815;28;20391;-41
2022/04/29 01:49:22;;;;;;;40.13;23.52;;;;;;;;;;5055593;28;20041;-39
2022/04/29 01:51:48;;;;;;;32.38;21.00;;;;;;;;;;5055722;28;20476;-42
2022/04/29 01:54:15;;;;;;;28.17;19.60;;;;;;;;;;5055896;28;20037;-42
2022/04/29 01:56:41;;;;;;;26.45;17.58;;;;;;;;;;5055722;28;20028;-41
2022/04/29 01:59:07;;;;;;;27.98;18.48;;;;;;;;;;5055568;28;20480;-41
2022/04/29 02:01:34;;;;;;;39.70;25.40;;;;;;;;;;5055609;28;20477;-42
2022/04/29 02:04:01;;;;;;;66.30;41.67;;;;;;;;;;5055719;28;20017;-40
2022/04/29 02:06:27;;;;;;;67.25;41.17;;;;;;;;;;5054578;28;20029;-42
2022/04/29 02:08:53;;;;;;;54.10;34.40;;;;;;;;;;5055305;28;20021;-42
2022/04/29 02:11:20;;;;;;;38.75;26.75;;;;;;;;;;5055414;28;20104;-40
2022/04/29 02:13:47;;;;;;;35.72;21.77;;;;;;;;;;5055212;28;20047;-40
2022/04/29 02:16:14;;;;;;;30.30;20.05;;;;;;;;;;5053951;28;20024;-39
2022/04/29 02:18:41;;;;;;;29.83;19.20;;;;;;;;;;5055462;28;20021;-40
2022/04/29 02:21:07;;;;;;;27.67;18.33;;;;;;;;;;5054947;28;20029;-39
2022/04/29 02:23:36;;;;;;;26.08;16.83;;;;;;;;;;5055310;28;20433;-39
2022/04/29 02:26:04;;;;;;;25.65;16.85;;;;;;;;;;5055030;28;20078;-39
2022/04/29 02:28:32;;;;;;;26.88;17.15;;;;;;;;;;5055121;28;20028;-41
2022/04/29 02:30:58;;;;;;;24.27;15.90;;;;;;;;;;5055234;28;20048;-40
2022/04/29 02:33:25;;;;;;;24.08;16.30;;;;;;;;;;5054840;28;20032;-40
2022/04/29 02:35:51;;;;;;;25.88;15.65;;;;;;;;;;5054741;28;20070;-41
2022/04/29 02:38:19;;;;;;;25.92;15.73;;;;;;;;;;5055182;28;20108;-41
2022/04/29 02:40:46;;;;;;;22.48;16.05;;;;;;;;;;5054617;28;20025;-41
2022/04/29 02:43:12;;;;;;;21.58;15.05;;;;;;;;;;5055082;28;20021;-38
2022/04/29 02:45:38;;;;;;;23.83;15.50;;;;;;;;;;5054717;28;20358;-44
2022/04/29 02:48:05;;;;;;;22.83;15.27;;;;;;;;;;5054573;28;20111;-41
2022/04/29 02:50:31;;;;;;;25.15;16.35;;;;;;;;;;5054325;28;20040;-38
2022/04/29 02:52:57;;;;;;;25.52;15.77;;;;;;;;;;5054562;28;20054;-40
2022/04/29 02:55:24;;;;;;;28.70;16.23;;;;;;;;;;5054776;28;20025;-45
2022/04/29 02:57:50;;;;;;;24.25;16.10;;;;;;;;;;5054643;28;20418;-41
2022/04/29 03:00:16;;;;;;;32.25;16.80;;;;;;;;;;5054532;28;20020;-40
2022/04/29 03:02:42;;;;;;;26.33;16.42;;;;;;;;;;5054505;28;20060;-40
2022/04/29 03:05:08;;;;;;;24.17;16.15;;;;;;;;;;5054606;28;20427;-39
2022/04/29 03:07:34;;;;;;;25.90;16.52;;;;;;;;;;5054166;28;20128;-40
2022/04/29 03:10:00;;;;;;;29.27;16.83;;;;;;;;;;5054250;28;20389;-40
2022/04/29 03:12:26;;;;;;;23.73;16.35;;;;;;;;;;5054135;28;20079;-40
2022/04/29 03:15:15;;;;;;;24.17;16.60;;;;;;;;;;5054405;28;20100;-41
2022/04/29 03:20:26;;;;;;;24.35;15.98;;;;;;;;;;5054186;28;20393;-40
2022/04/29 03:22:52;;;;;;;26.02;16.58;;;;;;;;;;5054113;28;20048;-41
2022/04/29 03:25:18;;;;;;;27.90;16.85;;;;;;;;;;5054014;28;20021;-41
2022/04/29 03:27:45;;;;;;;28.00;16.75;;;;;;;;;;5053731;28;20041;-42
2022/04/29 03:30:11;;;;;;;25.05;15.75;;;;;;;;;;5053934;28;20380;-41
2022/04/29 03:32:37;;;;;;;29.40;17.75;;;;;;;;;;5054089;28;20393;-39
2022/04/29 03:35:04;;;;;;;24.65;16.67;;;;;;;;;;5054385;28;20048;-39
2022/04/29 03:37:31;;;;;;;34.35;21.58;;;;;;;;;;5054078;28;20025;-40
2022/04/29 03:39:57;;;;;;;31.63;18.35;;;;;;;;;;5053891;28;20021;-40
2022/04/29 03:42:23;;;;;;;32.38;21.20;;;;;;;;;;5053709;28;20070;-40
2022/04/29 03:44:49;;;;;;;40.95;24.63;;;;;;;;;;5053847;28;20025;-39
2022/04/29 03:47:16;;;;;;;30.02;19.10;;;;;;;;;;5053663;28;20078;-44
2022/04/29 03:49:42;;;;;;;46.40;27.27;;;;;;;;;;5053793;28;20048;-38
2022/04/29 03:52:08;;;;;;;40.97;24.80;;;;;;;;;;5052155;28;20370;-40
2022/04/29 03:54:34;;;;;;;33.92;20.83;;;;;;;;;;5053610;28;20507;-41
2022/04/29 03:57:00;;;;;;;29.73;17.77;;;;;;;;;;5053617;28;20056;-41
2022/04/29 03:59:26;;;;;;;26.42;17.20;;;;;;;;;;5053641;28;20056;-41
2022/04/29 04:01:53;;;;;;;21.90;15.50;;;;;;;;;;5053524;28;20037;-41
2022/04/29 04:04:19;;;;;;;24.02;15.73;;;;;;;;;;5052856;28;20083;-41
2022/04/29 04:06:51;;;;;;;65.65;35.25;;;;;;;;;;5053640;28;20039;-41
2022/04/29 04:09:18;;;;;;;38.58;20.42;;;;;;;;;;5053243;28;20029;-49
2022/04/29 04:11:44;;;;;;;35.42;20.10;;;;;;;;;;5053278;28;20029;-41
2022/04/29 04:14:10;;;;;;;30.63;18.48;;;;;;;;;;5053369;28;20032;-39
2022/04/29 04:16:37;;;;;;;29.55;17.20;;;;;;;;;;5053179;28;20056;-39
2022/04/29 04:19:03;;;;;;;22.98;14.70;;;;;;;;;;5053736;28;20150;-42
2022/04/29 04:21:30;;;;;;;25.05;14.80;;;;;;;;;;5053548;28;20028;-44
2022/04/29 04:23:56;;;;;;;33.63;18.23;;;;;;;;;;5053549;28;20040;-41
2022/04/29 04:26:23;;;;;;;28.10;15.45;;;;;;;;;;5053324;28;20025;-41
2022/04/29 04:28:49;;;;;;;23.70;13.90;;;;;;;;;;5055023;28;20021;-40
2022/04/29 04:31:15;;;;;;;26.55;16.30;;;;;;;;;;5057396;28;20029;-43
2022/04/29 04:33:41;;;;;;;22.52;12.07;;;;;;;;;;5057798;28;20122;-43
2022/04/29 04:36:09;;;;;;;21.83;12.35;;;;;;;;;;5056830;28;20029;-42
2022/04/29 04:38:37;;;;;;;16.40;10.10;;;;;;;;;;5057072;28;20491;-42
2022/04/29 04:41:08;;;;;;;20.90;11.52;;;;;;;;;;5057137;28;20477;-42
2022/04/29 04:43:35;;;;;;;26.08;13.63;;;;;;;;;;5056990;28;20064;-40
2022/04/29 04:46:06;;;;;;;28.48;14.02;;;;;;;;;;5057241;28;20032;-51
2022/04/29 04:48:32;;;;;;;24.57;12.90;;;;;;;;;;5057034;28;20072;-50
2022/04/29 04:51:01;;;;;;;26.50;15.00;;;;;;;;;;5056820;28;20349;-48
2022/04/29 04:53:28;;;;;;;21.42;13.05;;;;;;;;;;5057015;28;20041;-46
2022/04/29 04:55:54;;;;;;;14.90;9.23;;;;;;;;;;5057273;28;20032;-44
2022/04/29 04:58:20;;;;;;;12.55;8.25;;;;;;;;;;5056728;28;20389;-46
2022/04/29 05:00:46;;;;;;;10.95;7.00;;;;;;;;;;5056960;28;20021;-45
2022/04/29 05:03:12;;;;;;;12.43;6.93;;;;;;;;;;5056810;28;20021;-42
2022/04/29 05:05:39;;;;;;;10.15;6.45;;;;;;;;;;5056905;28;20033;-45
2022/04/29 05:08:05;;;;;;;11.18;7.28;;;;;;;;;;5055433;28;20037;-43
2022/04/29 05:10:31;;;;;;;12.07;8.07;;;;;;;;;;5056895;28;20025;-44
2022/04/29 05:12:58;;;;;;;10.77;7.75;;;;;;;;;;5056648;28;20142;-44
2022/04/29 05:15:24;;;;;;;8.98;6.32;;;;;;;;;;5056954;28;20473;-45
2022/04/29 05:17:52;;;;;;;12.75;8.68;;;;;;;;;;5056409;28;20036;-44
2022/04/29 05:20:18;;;;;;;9.38;6.30;;;;;;;;;;5056245;28;20378;-44
2022/04/29 05:22:47;;;;;;;9.30;7.15;;;;;;;;;;5056465;28;20065;-45
2022/04/29 05:25:13;;;;;;;26.30;14.88;;;;;;;;;;5056420;28;20520;-43
2022/04/29 05:27:39;;;;;;;18.65;12.15;;;;;;;;;;5056107;28;20079;-43
2022/04/29 05:30:06;;;;;;;33.53;20.63;;;;;;;;;;5056798;28;20461;-44
2022/04/29 05:32:32;;;;;;;16.55;9.63;;;;;;;;;;5056089;28;20033;-44
2022/04/29 05:34:59;;;;;;;12.25;8.57;;;;;;;;;;5056160;28;20021;-43
2022/04/29 05:37:25;;;;;;;17.42;10.50;;;;;;;;;;5056380;28;20096;-43
2022/04/29 05:42:36;;;;;;;10.77;7.65;;;;;;;;;;5056267;28;20078;-45
2022/04/29 05:45:04;;;;;;;12.80;7.20;;;;;;;;;;5056240;28;20442;-47
2022/04/29 05:47:30;;;;;;;11.30;6.60;;;;;;;;;;5056054;28;20503;-42
2022/04/29 05:49:56;;;;;;;8.15;6.47;;;;;;;;;;5054921;28;20041;-43
2022/04/29 05:52:23;;;;;;;9.65;6.65;;;;;;;;;;5055834;28;20033;-43
2022/04/29 05:54:49;;;;;;;8.00;5.85;;;;;;;;;;5055026;28;20032;-43
2022/04/29 05:57:15;;;;;;;6.70;5.30;;;;;;;;;;5055814;28;20075;-44
2022/04/29 05:59:41;;;;;;;11.38;6.15;;;;;;;;;;5055929;28;20028;-44
2022/04/29 06:02:08;;;;;;;8.82;5.88;;;;;;;;;;5054211;28;20072;-44
2022/04/29 06:04:34;;;;;;;15.77;5.63;;;;;;;;;;5055856;28;20033;-44
2022/04/29 06:07:00;;;;;;;8.13;5.72;;;;;;;;;;5055653;28;20040;-44
2022/04/29 06:09:26;;;;;;;8.98;5.70;;;;;;;;;;5055401;28;20025;-43
2022/04/29 06:11:53;;;;;;;5.93;4.80;;;;;;;;;;5055241;28;20443;-43
2022/04/29 06:14:19;;;;;;;7.55;5.07;;;;;;;;;;5054039;28;20040;-43
2022/04/29 06:16:46;;;;;;;7.97;5.45;;;;;;;;;;5054052;28;20025;-43
2022/04/29 06:19:12;;;;;;;6.75;5.30;;;;;;;;;;5054898;28;20033;-46
2022/04/29 06:21:40;;;;;;;7.63;4.93;;;;;;;;;;5055128;28;20025;-48
2022/04/29 06:24:06;;;;;;;10.90;6.40;;;;;;;;;;5055167;28;20472;-46
2022/04/29 06:26:33;;;;;;;8.02;5.47;;;;;;;;;;5055043;28;20043;-46
2022/04/29 06:28:59;;;;;;;9.35;5.07;;;;;;;;;;5054963;28;20025;-42
2022/04/29 06:31:25;;;;;;;7.30;5.30;;;;;;;;;;5055075;28;20021;-44
2022/04/29 06:33:51;;;;;;;8.45;5.82;;;;;;;;;;5055044;28;20100;-44
2022/04/29 06:36:17;;;;;;;8.48;5.00;;;;;;;;;;5055182;28;20083;-43
2022/04/29 06:38:43;;;;;;;8.88;5.07;;;;;;;;;;5055181;28;20025;-43
2022/04/29 06:41:09;;;;;;;9.90;5.30;;;;;;;;;;5054822;28;20054;-42
2022/04/29 06:43:35;;;;;;;7.18;4.80;;;;;;;;;;5054687;28;20459;-45
2022/04/29 06:46:01;;;;;;;6.78;5.13;;;;;;;;;;5054887;28;20063;-43
2022/04/29 06:48:27;;;;;;;7.68;4.93;;;;;;;;;;5054823;28;20036;-43
2022/04/29 06:50:56;;;;;;;6.28;4.70;;;;;;;;;;5053965;28;20478;-43
2022/04/29 06:53:22;;;;;;;8.07;5.97;;;;;;;;;;5054528;28;20051;-44
2022/04/29 06:55:48;;;;;;;8.95;5.90;;;;;;;;;;5054636;28;20120;-45
2022/04/29 06:58:14;;;;;;;15.73;7.03;;;;;;;;;;5054601;28;20532;-44
2022/04/29 07:00:42;;;;;;;19.42;7.80;;;;;;;;;;5054434;28;20029;-43
2022/04/29 07:03:08;;;;;;;12.13;6.85;;;;;;;;;;5054712;28;20025;-45
2022/04/29 07:05:37;;;;;;;9.73;6.15;;;;;;;;;;5054427;28;20068;-43
2022/04/29 07:08:03;;;;;;;19.30;11.52;;;;;;;;;;5054283;28;20365;-44
2022/04/29 07:10:29;;;;;;;31.95;16.95;;;;;;;;;;5054255;28;20021;-43
2022/04/29 07:12:55;;;;;;;23.35;13.25;;;;;;;;;;5054091;28;20032;-43
2022/04/29 07:15:21;;;;;;;21.83;13.88;;;;;;;;;;5054783;28;20530;-43
2022/04/29 07:17:48;;;;;;;18.67;12.50;;;;;;;;;;5053857;28;20055;-41
2022/04/29 07:20:14;;;;;;;15.45;9.35;;;;;;;;;;5053905;28;20021;-44
2022/04/29 07:22:41;;;;;;;17.02;11.00;;;;;;;;;;5054080;28;20473;-45
2022/04/29 07:25:08;;;;;;;14.32;9.93;;;;;;;;;;5053880;28;20116;-44
2022/04/29 07:27:35;;;;;;;23.83;13.88;;;;;;;;;;5052806;28;20045;-44
2022/04/29 07:30:01;;;;;;;8.82;6.90;;;;;;;;;;5053764;28;20028;-45
2022/04/29 07:32:27;;;;;;;10.20;6.72;;;;;;;;;;5053883;28;20037;-44
2022/04/29 07:43:12;;;;;;;11.60;8.55;;;;;;;;;;5053992;28;20171;-43
2022/04/29 07:45:38;;;;;;;13.90;9.10;;;;;;;;;;5053899;28;20024;-44
2022/04/29 07:48:05;;;;;;;9.45;7.50;;;;;;;;;;5053677;28;20056;-44
2022/04/29 07:50:32;;;;;;;12.43;7.97;;;;;;;;;;5053407;28;20123;-44
2022/04/29 07:52:59;;;;;;;9.98;7.95;;;;;;;;;;5053512;28;20032;-45
2022/04/29 07:55:25;;;;;;;11.75;8.15;;;;;;;;;;5053475;28;20024;-45
2022/04/29 07:57:51;;;;;;;18.25;12.43;;;;;;;;;;5053605;28;20061;-45
2022/04/29 08:00:17;;;;;;;11.07;8.15;;;;;;;;;;5053437;28;20108;-44
2022/04/29 08:02:44;;;;;;;12.65;7.90;;;;;;;;;;5052695;28;20059;-44
2022/04/29 08:05:10;;;;;;;13.20;8.82;;;;;;;;;;5053161;28;20033;-43
2022/04/29 08:07:36;;;;;;;10.20;8.13;;;;;;;;;;5053439;28;20099;-43
2022/04/29 08:10:03;;;;;;;9.45;7.20;;;;;;;;;;5053134;28;20465;-42
2022/04/29 08:12:29;;;;;;;15.25;7.57;;;;;;;;;;5053358;28;20032;-41
2022/04/29 08:14:56;;;;;;;12.50;9.07;;;;;;;;;;5053294;28;20017;-41
2022/04/29 08:17:22;;;;;;;15.40;8.90;;;;;;;;;;5053290;28;20126;-42
2022/04/29 08:19:49;;;;;;;12.25;8.07;;;;;;;;;;5053509;28;20033;-42
2022/04/29 08:22:15;;;;;;;9.68;7.03;;;;;;;;;;5053452;28;20466;-42
2022/04/29 08:24:42;;;;;;;9.25;6.68;;;;;;;;;;5053104;28;20033;-42
2022/04/29 08:27:08;;;;;;;11.50;8.18;;;;;;;;;;5051929;28;20135;-42
2022/04/29 08:29:34;;;;;;;13.77;9.13;;;;;;;;;;5053193;28;20139;-42
2022/04/29 08:32:01;;;;;;;11.50;7.78;;;;;;;;;;5053161;28;20458;-43
2022/04/29 08:34:27;;;;;;;9.65;6.70;;;;;;;;;;5052941;28;20082;-42
2022/04/29 08:36:53;;;;;;;11.63;8.02;;;;;;;;;;5052245;28;20021;-42
2022/04/29 08:39:19;;;;;;;13.13;8.38;;;;;;;;;;5052965;28;20029;-42
2022/04/29 08:41:45;;;;;;;10.20;7.28;;;;;;;;;;5052960;28;20103;-43
2022/04/29 08:44:11;;;;;;;7.93;6.18;;;;;;;;;;5052967;28;20476;-42
2022/04/29 08:46:39;;;;;;;10.32;7.93;;;;;;;;;;5052920;28;20036;-42
2022/04/29 08:49:06;;;;;;;12.52;8.73;;;;;;;;;;5052616;28;20045;-42
2022/04/29 08:51:35;;;;;;;12.40;8.75;;;;;;;;;;5053259;28;20116;-42
2022/04/29 08:54:02;;;;;;;10.18;7.00;;;;;;;;;;5052724;28;20037;-43
2022/04/29 08:59:14;;;;;;;6.43;5.30;;;;;;;;;;5053087;28;20043;-43
2022/04/29 09:01:43;;;;;;;8.43;5.72;;;;;;;;;;5052702;28;20056;-43
2022/04/29 09:04:09;;;;;;;10.25;7.13;;;;;;;;;;5052607;28;20021;-43
2022/04/29 09:06:48;;;;;;;10.85;5.78;;;;;;;;;;5052580;28;20033;-42
2022/04/29 09:09:14;;;;;;;7.22;5.35;;;;;;;;;;5053011;28;20505;-45
2022/04/29 09:11:40;;;;;;;8.15;6.03;;;;;;;;;;5052817;28;20538;-43
2022/04/29 09:14:25;;;;;;;8.10;5.85;;;;;;;;;;5053201;28;20049;-43
2022/04/29 09:16:51;;;;;;;6.18;5.05;;;;;;;;;;5056598;28;20036;-43
2022/04/29 09:19:33;;;;;;;11.02;6.10;;;;;;;;;;5056412;28;20013;-43
2022/04/29 09:22:04;;;;;;;11.98;6.60;;;;;;;;;;5056278;28;20025;-43
2022/04/29 09:24:30;;;;;;;8.93;6.05;;;;;;;;;;5056647;28;20029;-43
2022/04/29 09:27:00;;;;;;;10.52;5.30;;;;;;;;;;5056404;28;20032;-42
2022/04/29 09:29:26;;;;;;;5.32;3.95;;;;;;;;;;5056243;28;20039;-43
2022/04/29 09:31:53;;;;;;;4.70;3.60;;;;;;;;;;5056192;28;20025;-42
2022/04/29 09:34:20;;;;;;;6.30;4.63;;;;;;;;;;5056704;28;20029;-42
2022/04/29 09:36:46;;;;;;;7.50;5.32;;;;;;;;;;5056341;28;20021;-42
2022/04/29 09:39:28;;;;;;;5.97;3.97;;;;;;;;;;5056305;28;20017;-42
2022/04/29 09:41:57;;;;;;;6.55;4.35;;;;;;;;;;5056658;28;20021;-43
2022/04/29 09:44:33;;;;;;;5.93;4.35;;;;;;;;;;5055961;28;20032;-42
2022/04/29 09:47:12;;;;;;;6.70;4.00;;;;;;;;;;5055826;28;20476;-42
2022/04/29 09:49:38;;;;;;;5.97;3.90;;;;;;;;;;5055734;28;20045;-42
2022/04/29 09:52:05;;;;;;;4.30;3.75;;;;;;;;;;5055931;28;20060;-44
2022/04/29 09:54:37;;;;;;;7.22;3.85;;;;;;;;;;5055743;28;20079;-42
2022/04/29 09:57:05;;;;;;;6.80;4.47;;;;;;;;;;5056031;28;20469;-43
2022/04/29 09:59:44;;;;;;;5.38;3.95;;;;;;;;;;5055901;28;20053;-47
2022/04/29 10:02:11;;;;;;;5.40;3.80;;;;;;;;;;5055868;28;20507;-43
2022/04/29 10:04:39;;;;;;;4.50;2.80;;;;;;;;;;5055931;28;20029;-42
2022/04/29 10:07:09;;;;;;;6.65;4.07;;;;;;;;;;5055395;28;20044;-42
2022/04/29 10:09:36;;;;;;;6.65;3.65;;;;;;;;;;5053138;28;20063;-42
2022/04/29 10:12:03;;;;;;;3.60;2.63;;;;;;;;;;5052990;28;20107;-42
2022/04/29 10:14:31;;;;;;;5.22;3.92;;;;;;;;;;5054518;28;20021;-41
2022/04/29 10:22:50;;;;;;;5.05;2.72;;;;;;;;;;5055429;28;20512;-42
2022/04/29 10:25:17;;;;;;;4.63;2.75;;;;;;;;;;5055336;28;20040;-42
2022/04/29 10:27:44;;;;;;;3.80;3.08;;;;;;;;;;5054451;28;20033;-43
2022/04/29 10:30:11;;;;;;;9.60;3.17;;;;;;;;;;5055195;28;20033;-44
2022/04/29 10:32:56;;;;;;;4.35;2.65;;;;;;;;;;5055079;28;20039;-44
2022/04/29 10:35:42;;;;;;;4.18;2.63;;;;;;;;;;5055224;28;20066;-43
2022/04/29 10:38:15;;;;;;;5.70;2.90;;;;;;;;;;5055416;28;20025;-42
2022/04/29 10:40:41;;;;;;;3.95;3.20;;;;;;;;;;5054891;28;20025;-42
2022/04/29 10:43:09;;;;;;;3.92;2.55;;;;;;;;;;5054892;28;20025;-41
2022/04/29 10:45:35;;;;;;;5.88;3.15;;;;;;;;;;5054548;28;20025;-42
2022/04/29 10:48:22;;;;;;;4.63;3.00;;;;;;;;;;5054648;28;20116;-42
2022/04/29 10:50:48;;;;;;;5.30;2.78;;;;;;;;;;5054755;28;20078;-41
2022/04/29 10:53:15;;;;;;;4.47;2.83;;;;;;;;;;5054549;28;20086;-42
2022/04/29 10:55:41;;;;;;;6.30;2.83;;;;;;;;;;5054798;28;20048;-44
2022/04/29 10:58:21;;;;;;;3.90;2.55;;;;;;;;;;5054820;28;20025;-43
2022/04/29 11:01:16;;;;;;;5.88;3.00;;;;;;;;;;5054923;28;20013;-44
2022/04/29 11:03:45;;;;;;;5.05;2.67;;;;;;;;;;5054588;28;20495;-43
2022/04/29 11:06:14;;;;;;;3.83;2.72;;;;;;;;;;5054246;28;20056;-41
2022/04/29 11:08:44;;;;;;;3.45;2.75;;;;;;;;;;5054079;28;20082;-40
2022/04/29 11:11:11;;;;;;;15.57;3.00;;;;;;;;;;5054445;28;20096;-42
2022/04/29 11:13:42;;;;;;;5.72;3.28;;;;;;;;;;5053910;28;20062;-40
2022/04/29 11:16:13;;;;;;;4.68;2.65;;;;;;;;;;5054334;28;20025;-42
2022/04/29 11:18:41;;;;;;;2.90;2.28;;;;;;;;;;5054157;28;20029;-41
2022/04/29 11:26:47;;;;;;;4.22;2.30;;;;;;;;;;5054301;28;20044;-43
2022/04/29 11:29:14;;;;;;;2.83;2.30;;;;;;;;;;5053831;28;20116;-43
2022/04/29 11:31:41;;;;;;;2.83;2.33;;;;;;;;;;5054089;28;20021;-44
2022/04/29 11:34:08;;;;;;;5.50;2.88;;;;;;;;;;5054066;28;20052;-42
2022/04/29 11:36:34;;;;;;;3.55;2.42;;;;;;;;;;5053687;28;20484;-43
2022/04/29 11:39:03;;;;;;;4.40;2.60;;;;;;;;;;5053618;28;20496;-43
2022/04/29 11:41:33;;;;;;;3.35;2.40;;;;;;;;;;5053782;28;20055;-44
2022/04/29 11:44:01;;;;;;;6.82;2.50;;;;;;;;;;5053376;28;20032;-43
2022/04/29 11:46:27;;;;;;;5.85;2.35;;;;;;;;;;5053908;28;20350;-43
2022/04/29 11:49:00;;;;;;;3.40;2.58;;;;;;;;;;5053339;28;20039;-41
2022/04/29 11:51:32;;;;;;;3.17;2.55;;;;;;;;;;5053832;28;20025;-42
2022/04/29 11:54:02;;;;;;;5.95;2.85;;;;;;;;;;5053833;28;20036;-41
2022/04/29 11:56:39;;;;;;;2.75;2.20;;;;;;;;;;5053737;28;20372;-40
2022/04/29 11:59:06;;;;;;;7.40;3.13;;;;;;;;;;5053258;28;20346;-40
2022/04/29 12:01:33;;;;;;;3.42;1.98;;;;;;;;;;5053484;28;20388;-40
2022/04/29 12:04:01;;;;;;;2.67;1.90;;;;;;;;;;5053605;28;20104;-42
2022/04/29 12:06:28;;;;;;;3.03;2.10;;;;;;;;;;5053658;28;20051;-42
2022/04/29 12:08:54;;;;;;;5.53;2.60;;;;;;;;;;5053453;28;20029;-43
2022/04/29 12:11:24;;;;;;;6.80;2.30;;;;;;;;;;5053242;28;20032;-43
2022/04/29 12:13:50;;;;;;;3.83;2.30;;;;;;;;;;5052883;28;20100;-42
2022/04/29 12:16:16;;;;;;;3.10;1.85;;;;;;;;;;5053171;28;20523;-43
2022/04/29 12:18:45;;;;;;;3.20;1.98;;;;;;;;;;5053437;28;20087;-42
2022/04/29 12:21:12;;;;;;;2.50;2.08;;;;;;;;;;5053619;28;20103;-44
2022/04/29 12:23:39;;;;;;;4.47;2.33;;;;;;;;;;5052103;28;20112;-43
2022/04/29 12:26:07;;;;;;;6.00;2.10;;;;;;;;;;5052741;28;20056;-42
2022/04/29 12:28:37;;;;;;;2.78;2.10;;;;;;;;;;5053585;28;20102;-46
2022/04/29 12:36:53;;;;;;;3.90;2.20;;;;;;;;;;5053261;28;20037;-42
2022/04/29 12:39:24;;;;;;;4.57;3.00;;;;;;;;;;5053342;28;20108;-43
2022/04/29 12:42:02;;;;;;;3.78;1.80;;;;;;;;;;5053447;28;20032;-45
2022/04/29 12:47:31;;;;;;;6.20;2.70;;;;;;;;;;5053233;28;20091;-43
2022/04/29 12:50:16;;;;;;;7.65;2.78;;;;;;;;;;5054605;28;20037;-43
2022/04/29 12:53:16;;;;;;;11.20;3.47;;;;;;;;;;5056751;28;20029;-43
2022/04/29 12:55:43;;;;;;;5.43;3.53;;;;;;;;;;5015119;28;20060;-43
2022/04/29 12:58:10;;;;;;;3.38;2.70;;;;;;;;;;5015038;28;20563;-42
2022/04/29 13:00:37;;;;;;;3.35;2.22;;;;;;;;;;5015241;28;20058;-42
2022/04/29 13:03:04;;;;;;;3.85;2.30;;;;;;;;;;5015375;28;20040;-42
2022/04/29 13:05:31;;;;;;;11.27;2.88;;;;;;;;;;5015014;28;20081;-41
2022/04/29 13:07:58;;;;;;;7.28;3.05;;;;;;;;;;5014785;28;20033;-41
2022/04/29 13:10:26;;;;;;;7.35;2.40;;;;;;;;;;5014709;28;20037;-43
2022/04/29 13:12:53;;;;;;;4.72;2.70;;;;;;;;;;5014872;28;20084;-41
2022/04/29 13:15:19;;;;;;;7.72;2.65;;;;;;;;;;5014345;28;20457;-40
2022/04/29 13:17:45;;;;;;;3.47;2.10;;;;;;;;;;5014650;28;20482;-39
2022/04/29 13:20:12;;;;;;;7.03;2.30;;;;;;;;;;5014502;28;20042;-41
2022/04/29 13:22:39;;;;;;;3.08;2.20;;;;;;;;;;5014976;28;20034;-40
2022/04/29 13:25:08;;;;;;;5.45;2.92;;;;;;;;;;5014379;28;20120;-40
2022/04/29 13:27:34;;;;;;;5.43;2.35;;;;;;;;;;5014792;28;20117;-40
2022/04/29 13:30:01;;;;;;;5.60;3.30;;;;;;;;;;4998136;28;20026;-40
2022/04/29 13:32:30;;;;;;;11.40;4.55;;;;;;;;;;5056144;28;20037;-40
2022/04/29 13:34:56;;;;;;;6.57;3.55;;;;;;;;;;5055834;28;20495;-39
2022/04/29 13:37:23;;;;;;;4.10;2.90;;;;;;;;;;5056020;28;20032;-39
2022/04/29 13:39:51;;;;;;;6.80;3.40;;;;;;;;;;5055200;28;20045;-39
2022/04/29 13:42:18;;;;;;;12.45;8.55;;;;;;;;;;5055406;28;20713;-40
2022/04/29 13:44:44;;;;;;;60.38;19.73;;;;;;;;;;5055152;28;20083;-40
2022/04/29 13:47:11;;;;;;;45.03;23.42;;;;;;;;;;5055478;28;20469;-39
2022/04/29 13:49:37;;;;;;;64.93;34.33;;;;;;;;;;5055310;28;20041;-41
2022/04/29 13:54:48;;;;;;;19.30;11.85;;;;;;;;;;5054154;28;20056;-39
2022/04/29 13:57:14;;;;;;;23.92;12.38;;;;;;;;;;5055642;28;20067;-40
2022/04/29 13:59:40;;;;;;;11.57;7.15;;;;;;;;;;5055655;28;20060;-41
2022/04/29 14:02:06;;;;;;;12.60;7.20;;;;;;;;;;5054351;28;20358;-40
2022/04/29 14:04:34;;;;;;;16.63;9.20;;;;;;;;;;5055556;28;20469;-39
2022/04/29 14:07:01;;;;;;;35.75;19.63;;;;;;;;;;5053964;28;20037;-42
2022/04/29 14:09:28;;;;;;;14.45;9.07;;;;;;;;;;5055552;28;20033;-41
2022/04/29 14:11:54;;;;;;;14.02;7.18;;;;;;;;;;5055393;28;20023;-41
2022/04/29 14:14:20;;;;;;;36.38;21.65;;;;;;;;;;5055208;28;20103;-41
2022/04/29 14:16:47;;;;;;;12.07;5.97;;;;;;;;;;5055239;28;20101;-39
2022/04/29 14:19:16;;;;;;;19.55;11.23;;;;;;;;;;5055241;28;20033;-39
2022/04/29 14:21:43;;;;;;;15.40;9.25;;;;;;;;;;5055033;28;20029;-40
2022/04/29 14:24:09;;;;;;;10.90;6.35;;;;;;;;;;5054914;28;20037;-41
2022/04/29 14:26:35;;;;;;;71.65;39.45;;;;;;;;;;5055109;28;20021;-42
2022/04/29 14:29:04;;;;;;;34.47;19.75;;;;;;;;;;5055132;28;20029;-39
2022/04/29 14:31:30;;;;;;;55.72;31.83;;;;;;;;;;5054973;28;20024;-39
2022/04/29 14:33:59;;;;;;;39.53;20.38;;;;;;;;;;5055027;28;20035;-41
2022/04/29 14:36:29;;;;;;;17.80;9.73;;;;;;;;;;5054752;28;20112;-41
2022/04/29 14:38:55;;;;;;;33.00;15.45;;;;;;;;;;5054571;28;20108;-40
2022/04/29 14:41:21;;;;;;;73.57;39.75;;;;;;;;;;5055031;28;20025;-38
2022/04/29 14:43:47;;;;;;;15.45;8.48;;;;;;;;;;5054806;28;20029;-38
2022/04/29 14:46:14;;;;;;;15.73;8.68;;;;;;;;;;5054662;28;20017;-39
2022/04/29 14:48:42;;;;;;;8.57;5.28;;;;;;;;;;5054409;28;20370;-38
2022/04/29 14:51:09;;;;;;;13.93;5.80;;;;;;;;;;5054416;28;20390;-45
2022/04/29 14:53:37;;;;;;;14.45;7.50;;;;;;;;;;5054692;28;20473;-39
2022/04/29 14:56:07;;;;;;;7.40;5.60;;;;;;;;;;5052665;28;20029;-38
2022/04/29 14:58:34;;;;;;;18.15;9.90;;;;;;;;;;5051295;28;20091;-39
2022/04/29 15:01:00;;;;;;;78.10;39.35;;;;;;;;;;5053811;28;20025;-40
2022/04/29 15:03:26;;;;;;;15.02;7.80;;;;;;;;;;5054082;28;20029;-38
2022/04/29 15:05:54;;;;;;;6.40;3.88;;;;;;;;;;5052978;28;20411;-37
2022/04/29 15:08:21;;;;;;;10.52;6.88;;;;;;;;;;5054285;28;20430;-41
2022/04/29 15:16:16;;;;;;;19.88;11.50;;;;;;;;;;5054378;28;20086;-39